Dickinson, ND (58601)

5:51 AM MDT on July 29, 2016 (GMT -0600)
| | Change Station

Elev -9999 ft 0.00 °N, 0.00 °E | Updated

Partly Cloudy
Partly Cloudy
63 °F
Feels Like 63 °F
N
5
Wind Variable Wind from SSE
Gusts mph

Today
High -- | Low -- °F
--% Chance of Precip.
Yesterday
High -- | Low -- °F
Precip. -- in
Pressure 30.10 in
Visibility 3.0 miles
Clouds Few 200 ft
Scattered Clouds 2400 ft
Mostly Cloudy 3400 ft
Dew Point 56 °F
Humidity 79%
Rainfall --
Snow Depth Not available.
5:27 AM 8:26 PM
Waning Crescent, 22% visible
SPECI KDIK 291130Z AUTO 00000KT 3SM BR FEW002 SCT024 BKN034 12/12 A3010 RMK AO2 T01170117
Pressure 30.10 in
Visibility 3.0 miles
Clouds Few 200 ft
Scattered Clouds 2400 ft
Mostly Cloudy 3400 ft
Dew Point 56 °F
Humidity 79%
Rainfall --
Snow Depth Not available.
5:27 AM 8:26 PM
Waning Crescent, 22% visible
SPECI KDIK 291130Z AUTO 00000KT 3SM BR FEW002 SCT024 BKN034 12/12 A3010 RMK AO2 T01170117

10-Day Weather Forecast

Almanac

Astronomy

Jul. 29, 2016 Rise Set
Actual Time
Civil Twilight
Nautical Twilight
Astronomical Twilight
Moon
Length of Visible Light
Length of Day
Tomorrow will be .
, % of the Moon is Illuminated

Today's Extremes

State Highs State Lows

Community

WunderPhotos

Upload Photos

1,928,325 photos uploaded!

WunderBlog® & News

Nearby

Air Quality

  Air Quality AQ Index Pollutant
Not available.

Snow Depth

Station Depth Elevation

Earthquake Activity

City Distance Mag. Time & Date
Minimum magnitude displayed is 2.5.

Coastal Water Temperatures

Place Temperature

Stations

Nearby Weather Stations

Station Location Temp. Windchill Dew Point Humidity Wind Precip. Elev Updated Type
                   

Watches & Warnings

There are currently no watches in effect.